Amarillo, TX (79101)

02:01 PM CST die 30o January, anno 2015 (GMT -0600)
Oliver-Eakle | Change Station
CLOSE
Current Station
Personal Weather Stations
Location: Amarillo, TX
Elevation: 3678 ft
Nearby Weather Stations
Active Advisory: Winter Weather Advisory

Elev 3678 ft 35.19 °N, 101.84 °W | Updated 14 seconds ago

Aequaliter Nubila
Aequaliter Nubila
40.8 °F
Feels Like 41 °F
N
3.0
Ventus Variabilis Ventus from Auster
Gusts 4.6 mph

Hodie
High -- | Low -- °F
--% Chance of Precip.
Yesterday
High -- | Low -- °F
Precip. -- in
7:48 AM 6:13 PM
Waxing Gibbous, 84% visible
Pressio 30.34 in
Visibilitas 10.0 milia passuum
Clouds Aequaliter Nubila 6500 ft
Frigus Venti 41 °F
Frigus in quo Ros apparet 29 °F
Umor 62%
Rainfall 0.00 in
Snow Depth Not available.
UV 1 out of 12
Pollen 1.70 out of 12
Air Quality Not available.
Flu Activity Not available.
METAR KAMA 301953Z 17009KT 10SM OVC065 04/M03 A3032 RMK AO2 SLP273 T00391028

More Conditions Fewer Conditions

Pressio 30.34 in
Visibilitas 10.0 milia passuum
Clouds Aequaliter Nubila 6500 ft
Frigus Venti 41 °F
Frigus in quo Ros apparet 29 °F
Umor 62%
Rainfall 0.00 in
Snow Depth Not available.
UV 1 out of 12
Pollen 1.70 out of 12
Air Quality Not available.
Flu Activity Not available.
METAR KAMA 301953Z 17009KT 10SM OVC065 04/M03 A3032 RMK AO2 SLP273 T00391028

More Conditions Fewer Conditions

10-Day Weather Forecast

Almanac

Astronomy

Jan. 30, 2015 Rise Set
Actual Time
Civil Twilight
Nautical Twilight
Astronomical Twilight
Moon
Length Of Visible Light
Length of Day
Tomorrow will be .
, % of the Moon is Illuminated

Today's Extremes

State Highs State Lows

Community

WunderPhotos

Upload Photos

1,791,882 photos uploaded!

WunderBlogs® & News

Nearby

Air Quality

  Air Quality AQ Index Pollutant
Not available.

Snow Depth

Station Depth Elevation

Earthquake Activity

City Distance Mag. Time & Date
Minimum magnitude displayed is 2.5.

Coastal Water Temperatures

Locus Calor

Nearby Weather Stations